Time;durP1;ratioP1;P1;durP2;ratioP2;P2;SDS_P1;SDS_P2;PMS_P1;PMS_P2;Temp;Humidity;BMP_temperature;BMP_pressure;BME280_temperature;BME280_humidity;BME280_pressure;Samples;Min_cycle;Max_cycle;Signal;HPM_P1;HPM_P2
2022/01/05 00:01:36;;;;;;;0.00;0.00;;;6.30;99.90;;;;;;5012551;28;20030;-72
2022/01/05 00:04:02;;;;;;;0.00;0.00;;;6.30;99.90;;;;;;5012584;28;20434;-73
2022/01/05 00:06:28;;;;;;;2.92;2.45;;;6.20;99.90;;;;;;5010855;28;20037;-72
2022/01/05 00:08:53;;;;;;;0.00;0.00;;;6.30;99.90;;;;;;5012833;28;20038;-72
2022/01/05 00:11:19;;;;;;;0.00;0.00;;;6.30;99.90;;;;;;5012427;28;20034;-72
2022/01/05 00:13:45;;;;;;;0.00;0.00;;;6.30;99.90;;;;;;4994989;28;20057;-73
2022/01/05 00:16:11;;;;;;;0.50;0.50;;;6.30;99.90;;;;;;5012402;28;20482;-73
2022/01/05 00:18:38;;;;;;;0.00;0.00;;;6.30;99.90;;;;;;5012625;28;20109;-73
2022/01/05 00:21:04;;;;;;;0.25;0.25;;;6.20;99.90;;;;;;5011708;28;20034;-70
2022/01/05 00:23:31;;;;;;;0.00;0.00;;;6.20;99.90;;;;;;5012457;28;20034;-71
2022/01/05 00:25:56;;;;;;;0.10;0.10;;;6.20;99.90;;;;;;5011023;28;20105;-72
2022/01/05 00:28:22;;;;;;;0.00;0.00;;;6.20;99.90;;;;;;5012357;28;20125;-72
2022/01/05 00:30:48;;;;;;;0.10;0.10;;;6.20;99.90;;;;;;5012119;28;20026;-72
2022/01/05 00:33:15;;;;;;;0.00;0.00;;;6.10;99.90;;;;;;5012016;28;20042;-72
2022/01/05 00:35:42;;;;;;;0.00;0.00;;;6.10;99.90;;;;;;5011898;28;20132;-73
2022/01/05 00:38:08;;;;;;;0.03;0.03;;;6.10;99.90;;;;;;5012185;28;20098;-73
2022/01/05 00:40:33;;;;;;;0.08;0.08;;;6.10;99.90;;;;;;5011839;28;20066;-73
2022/01/05 00:42:59;;;;;;;0.00;0.00;;;6.10;99.90;;;;;;5012070;28;20502;-72
2022/01/05 00:45:25;;;;;;;0.10;0.10;;;6.10;99.90;;;;;;5011842;28;20471;-72
2022/01/05 00:47:51;;;;;;;0.10;0.10;;;6.00;99.90;;;;;;5011748;28;20129;-73
2022/01/05 00:50:17;;;;;;;0.10;0.10;;;6.00;99.90;;;;;;5011833;28;20038;-73
2022/01/05 00:52:42;;;;;;;0.40;0.40;;;6.10;99.90;;;;;;5011561;28;20113;-73
2022/01/05 00:55:08;;;;;;;0.00;0.00;;;6.00;99.90;;;;;;5012017;28;20033;-73
2022/01/05 00:57:34;;;;;;;0.10;0.10;;;6.00;99.90;;;;;;5011738;28;20026;-73
2022/01/05 01:00:00;;;;;;;0.15;0.15;;;6.10;99.90;;;;;;5011563;28;20379;-72
2022/01/05 01:02:26;;;;;;;0.10;0.10;;;6.10;99.90;;;;;;5011755;28;20030;-72
2022/01/05 01:04:51;;;;;;;1.88;1.75;;;6.10;99.90;;;;;;5010593;28;20046;-73
2022/01/05 01:07:17;;;;;;;0.00;0.00;;;6.10;99.90;;;;;;5010552;28;20034;-72
2022/01/05 01:09:43;;;;;;;0.10;0.10;;;6.10;99.90;;;;;;5010474;28;20038;-73
2022/01/05 01:12:09;;;;;;;0.00;0.00;;;6.00;99.90;;;;;;5011497;28;20049;-73
2022/01/05 01:14:35;;;;;;;0.00;0.00;;;6.00;99.90;;;;;;5010612;28;20045;-72
2022/01/05 01:17:01;;;;;;;9.13;1.55;;;6.10;99.90;;;;;;5012095;28;20117;-72
2022/01/05 01:19:27;;;;;;;0.10;0.10;;;6.10;99.90;;;;;;5015817;28;20065;-72
2022/01/05 01:21:53;;;;;;;0.00;0.00;;;6.20;99.90;;;;;;5015699;28;20097;-72
2022/01/05 01:24:19;;;;;;;0.10;0.10;;;6.20;99.90;;;;;;5030482;28;20056;-72
2022/01/05 01:26:45;;;;;;;0.00;0.00;;;6.20;99.90;;;;;;5014558;28;20459;-72
2022/01/05 01:29:10;;;;;;;0.00;0.00;;;6.20;99.90;;;;;;5014307;28;20037;-72
2022/01/05 01:31:36;;;;;;;0.03;0.03;;;6.20;99.90;;;;;;5015215;28;20042;-72
2022/01/05 01:34:02;;;;;;;0.30;0.30;;;6.20;99.90;;;;;;5015105;28;20046;-72
2022/01/05 01:36:28;;;;;;;0.00;0.00;;;6.30;99.90;;;;;;5015425;28;20053;-72
2022/01/05 01:38:54;;;;;;;0.10;0.10;;;6.30;99.90;;;;;;5015597;28;20069;-72
2022/01/05 01:41:20;;;;;;;0.00;0.00;;;6.30;99.90;;;;;;5015092;28;20041;-73
2022/01/05 01:43:46;;;;;;;0.10;0.10;;;6.30;99.90;;;;;;5015410;28;20033;-72
2022/01/05 01:46:11;;;;;;;0.10;0.10;;;6.30;99.90;;;;;;5015121;28;20030;-72
2022/01/05 01:48:37;;;;;;;0.00;0.00;;;6.30;99.90;;;;;;5014774;28;20450;-71
2022/01/05 01:51:03;;;;;;;0.00;0.00;;;6.30;99.90;;;;;;5013673;28;20030;-72
2022/01/05 01:53:30;;;;;;;0.00;0.00;;;6.30;99.90;;;;;;5015060;28;20612;-72
2022/01/05 01:56:00;;;;;;;0.00;0.00;;;6.30;99.90;;;;;;5013638;28;20140;-72
2022/01/05 01:58:30;;;;;;;0.00;0.00;;;6.30;99.90;;;;;;5014720;28;20037;-72
2022/01/05 02:00:56;;;;;;;0.00;0.00;;;6.30;99.90;;;;;;5013946;28;20030;-72
2022/01/05 02:03:22;;;;;;;0.03;0.03;;;6.30;99.90;;;;;;5013325;28;20041;-73
2022/01/05 02:05:48;;;;;;;0.00;0.00;;;6.30;99.90;;;;;;5013464;28;20034;-71
2022/01/05 02:08:13;;;;;;;0.08;0.08;;;6.40;99.90;;;;;;5013159;28;20050;-71
2022/01/05 02:10:40;;;;;;;0.05;0.05;;;6.40;99.90;;;;;;5014812;28;20026;-71
2022/01/05 02:13:06;;;;;;;0.00;0.00;;;6.40;99.90;;;;;;5013058;28;20068;-71
2022/01/05 02:15:32;;;;;;;0.00;0.00;;;6.40;99.90;;;;;;5014520;28;20494;-71
2022/01/05 02:20:30;;;;;;;0.00;0.00;;;6.40;99.90;;;;;;5013579;28;20030;-71
2022/01/05 02:22:57;;;;;;;0.25;0.25;;;6.40;99.90;;;;;;5012915;28;20026;-72
2022/01/05 02:25:23;;;;;;;0.05;0.05;;;6.40;99.90;;;;;;5029730;28;20037;-72
2022/01/05 02:27:54;;;;;;;0.00;0.00;;;6.40;99.90;;;;;;5014603;28;20038;-73
2022/01/05 02:30:30;;;;;;;0.15;0.15;;;6.40;99.90;;;;;;5012703;28;20125;-72
2022/01/05 02:32:56;;;;;;;0.00;0.00;;;6.50;99.90;;;;;;5014202;28;20059;-71
2022/01/05 02:35:24;;;;;;;0.00;0.00;;;6.50;99.90;;;;;;5014143;28;20034;-71
2022/01/05 02:37:53;;;;;;;0.00;0.00;;;6.50;99.90;;;;;;5013205;28;20030;-72
2022/01/05 02:40:21;;;;;;;0.00;0.00;;;6.50;99.90;;;;;;5014129;28;20508;-71
2022/01/05 02:42:48;;;;;;;0.00;0.00;;;6.50;99.90;;;;;;5013970;28;20061;-72
2022/01/05 02:45:15;;;;;;;0.10;0.10;;;6.50;99.90;;;;;;5013936;28;20057;-71
2022/01/05 02:47:41;;;;;;;0.00;0.00;;;6.50;99.90;;;;;;5013891;28;20446;-71
2022/01/05 02:50:10;;;;;;;0.00;0.00;;;6.50;99.90;;;;;;5012662;28;20509;-72
2022/01/05 02:52:36;;;;;;;0.00;0.00;;;6.60;99.90;;;;;;5013994;28;20486;-71
2022/01/05 02:55:04;;;;;;;0.08;0.08;;;6.60;99.90;;;;;;5014065;28;20037;-72
2022/01/05 02:57:30;;;;;;;0.00;0.00;;;6.60;99.90;;;;;;5013837;28;20105;-72
2022/01/05 02:59:56;;;;;;;0.10;0.10;;;6.60;99.90;;;;;;5013585;28;20491;-72
2022/01/05 03:02:22;;;;;;;0.00;0.00;;;6.70;99.90;;;;;;5012308;28;20041;-72
2022/01/05 03:04:48;;;;;;;0.00;0.00;;;6.70;99.90;;;;;;5012499;28;20059;-71
2022/01/05 03:07:15;;;;;;;0.00;0.00;;;6.70;99.90;;;;;;5013088;28;20113;-71
2022/01/05 03:09:42;;;;;;;0.00;0.00;;;6.70;99.90;;;;;;5013917;28;20563;-71
2022/01/05 03:12:09;;;;;;;0.00;0.00;;;6.70;99.90;;;;;;5013139;28;20037;-71
2022/01/05 03:14:35;;;;;;;0.00;0.00;;;6.70;99.90;;;;;;5013719;28;20092;-72
2022/01/05 03:17:01;;;;;;;0.00;0.00;;;6.80;99.90;;;;;;5013592;28;20383;-72
2022/01/05 03:19:26;;;;;;;0.00;0.00;;;5.90;99.90;;;;;;5012440;28;20037;-72
2022/01/05 03:21:52;;;;;;;0.00;0.00;;;5.20;99.90;;;;;;5012115;28;20101;-72
2022/01/05 03:24:18;;;;;;;0.10;0.10;;;4.60;99.90;;;;;;5013345;28;20041;-72
2022/01/05 03:26:44;;;;;;;0.10;0.10;;;4.20;99.90;;;;;;5012270;28;20030;-73
2022/01/05 03:29:09;;;;;;;0.10;0.10;;;3.80;99.90;;;;;;5011817;28;20529;-73
2022/01/05 03:31:35;;;;;;;0.10;0.10;;;3.60;99.90;;;;;;5012906;28;20061;-73
2022/01/05 03:34:01;;;;;;;0.10;0.10;;;3.50;99.90;;;;;;5013279;28;20112;-74
2022/01/05 03:36:27;;;;;;;0.10;0.10;;;3.40;99.90;;;;;;5012847;28;20492;-74
2022/01/05 03:38:52;;;;;;;0.00;0.00;;;3.30;99.90;;;;;;5013243;28;20475;-74
2022/01/05 03:41:18;;;;;;;0.10;0.10;;;3.30;99.90;;;;;;5012214;28;20034;-74
2022/01/05 03:43:44;;;;;;;0.03;0.03;;;3.30;99.90;;;;;;5013341;28;20033;-74
2022/01/05 03:46:10;;;;;;;0.10;0.10;;;3.40;99.90;;;;;;5013191;28;20053;-74
2022/01/05 03:48:35;;;;;;;0.10;0.10;;;3.40;99.90;;;;;;5011614;28;20139;-71
2022/01/05 03:51:01;;;;;;;0.00;0.00;;;3.40;99.90;;;;;;5013114;28;20120;-72
2022/01/05 03:53:27;;;;;;;0.00;0.00;;;3.40;99.90;;;;;;5012332;28;20045;-73
2022/01/05 03:55:53;;;;;;;1.25;1.13;;;3.40;99.90;;;;;;5012948;28;20037;-72
2022/01/05 03:58:18;;;;;;;0.10;0.10;;;3.40;99.90;;;;;;5011465;28;20034;-73
2022/01/05 04:00:51;;;;;;;0.10;0.10;;;3.50;99.90;;;;;;5012531;28;20527;-72
2022/01/05 04:03:18;;;;;;;0.00;0.00;;;3.40;99.90;;;;;;5012380;28;20180;-73
2022/01/05 04:05:44;;;;;;;0.10;0.10;;;3.40;99.90;;;;;;5012449;28;20034;-72
2022/01/05 04:08:12;;;;;;;0.05;0.05;;;3.40;99.90;;;;;;5012574;28;20382;-72
2022/01/05 04:10:39;;;;;;;0.40;0.40;;;3.50;99.90;;;;;;5011262;28;20038;-73
2022/01/05 04:13:05;;;;;;;0.10;0.10;;;3.50;99.90;;;;;;5012550;28;20044;-72
2022/01/05 04:15:31;;;;;;;0.50;0.50;;;3.50;99.90;;;;;;5012121;28;20405;-72
2022/01/05 04:17:57;;;;;;;0.00;0.00;;;3.60;99.90;;;;;;4994835;28;20088;-73
2022/01/05 04:20:22;;;;;;;0.10;0.10;;;3.60;99.90;;;;;;5011083;28;20414;-73
2022/01/05 04:22:48;;;;;;;0.35;0.35;;;3.70;99.90;;;;;;5011248;28;20395;-73
2022/01/05 04:25:14;;;;;;;0.20;0.20;;;3.70;99.90;;;;;;5010909;28;20463;-73
2022/01/05 04:27:41;;;;;;;0.00;0.00;;;3.80;99.90;;;;;;5012204;28;20402;-73
2022/01/05 04:30:10;;;;;;;0.00;0.00;;;3.80;99.90;;;;;;5010742;28;20026;-72
2022/01/05 04:32:35;;;;;;;0.10;0.10;;;3.90;99.90;;;;;;5012442;28;20034;-73
2022/01/05 04:35:02;;;;;;;0.10;0.10;;;3.90;99.90;;;;;;5011101;28;20032;-73
2022/01/05 04:37:29;;;;;;;0.10;0.10;;;3.90;99.90;;;;;;5012106;28;20037;-73
2022/01/05 04:39:55;;;;;;;0.00;0.00;;;4.00;99.90;;;;;;5012355;28;20117;-73
2022/01/05 04:42:21;;;;;;;0.45;0.45;;;4.00;99.90;;;;;;5011740;28;20100;-73
2022/01/05 04:44:46;;;;;;;0.50;0.50;;;4.00;99.90;;;;;;5010979;28;20708;-71
2022/01/05 04:47:12;;;;;;;0.22;0.22;;;4.00;99.90;;;;;;5011569;28;20406;-72
2022/01/05 04:49:39;;;;;;;0.00;0.00;;;4.00;99.90;;;;;;5012039;28;20037;-72
2022/01/05 04:52:05;;;;;;;0.00;0.00;;;4.00;99.90;;;;;;5011615;28;20106;-72
2022/01/05 04:54:31;;;;;;;0.10;0.10;;;4.00;99.90;;;;;;5010686;28;20383;-72
2022/01/05 04:56:57;;;;;;;0.10;0.10;;;4.00;99.90;;;;;;5012058;28;20025;-72
2022/01/05 04:59:23;;;;;;;0.30;0.30;;;4.10;99.90;;;;;;5011899;28;20041;-72
2022/01/05 05:01:48;;;;;;;0.00;0.00;;;4.10;99.90;;;;;;5018385;28;20034;-71
2022/01/05 05:04:14;;;;;;;0.00;0.00;;;4.10;99.90;;;;;;5017223;28;20038;-71
2022/01/05 05:06:40;;;;;;;0.10;0.10;;;4.10;99.90;;;;;;5011822;28;20061;-71
2022/01/05 05:09:06;;;;;;;0.20;0.20;;;4.10;99.90;;;;;;5027237;28;20077;-68
2022/01/05 05:11:32;;;;;;;0.10;0.10;;;4.20;99.90;;;;;;5031217;28;20057;-72
2022/01/05 05:13:57;;;;;;;0.10;0.10;;;4.20;99.90;;;;;;5031438;28;20037;-71
2022/01/05 05:16:23;;;;;;;0.10;0.10;;;4.30;99.90;;;;;;5046714;28;20033;-72
2022/01/05 05:18:49;;;;;;;0.03;0.03;;;4.30;99.90;;;;;;5029821;28;20025;-73
2022/01/05 05:21:15;;;;;;;0.10;0.10;;;4.30;99.90;;;;;;5029813;28;20485;-73
2022/01/05 05:23:40;;;;;;;0.10;0.10;;;4.30;99.90;;;;;;5030213;28;20033;-72
2022/01/05 05:26:09;;;;;;;0.10;0.10;;;4.30;99.90;;;;;;5030038;28;20021;-72
2022/01/05 05:28:35;;;;;;;0.03;0.03;;;4.30;99.90;;;;;;5028103;28;20041;-72
2022/01/05 05:31:01;;;;;;;0.00;0.00;;;4.30;99.90;;;;;;5013274;28;20029;-72
2022/01/05 05:33:26;;;;;;;0.00;0.00;;;4.40;99.90;;;;;;5030857;28;20091;-72
2022/01/05 05:35:52;;;;;;;0.10;0.10;;;4.40;99.90;;;;;;5031329;28;20053;-73
2022/01/05 05:38:18;;;;;;;0.00;0.00;;;4.40;99.90;;;;;;5029518;28;20109;-72
2022/01/05 05:40:44;;;;;;;0.10;0.10;;;4.50;99.90;;;;;;5013732;28;20029;-73
2022/01/05 05:43:10;;;;;;;0.00;0.00;;;4.40;99.90;;;;;;5031350;28;20034;-72
2022/01/05 05:45:36;;;;;;;0.03;0.03;;;4.50;99.90;;;;;;5030938;28;20030;-72
2022/01/05 05:48:02;;;;;;;0.10;0.10;;;4.50;99.90;;;;;;5031029;28;20060;-73
2022/01/05 05:50:28;;;;;;;0.20;0.20;;;4.50;99.90;;;;;;5031111;28;20062;-72
2022/01/05 05:52:54;;;;;;;0.10;0.10;;;4.50;99.90;;;;;;5029716;28;20056;-72
2022/01/05 05:55:20;;;;;;;0.10;0.10;;;4.40;99.90;;;;;;5031285;28;20466;-72
2022/01/05 05:57:46;;;;;;;0.00;0.00;;;4.40;99.90;;;;;;5029657;28;20025;-72
2022/01/05 06:00:12;;;;;;;0.00;0.00;;;4.50;99.90;;;;;;5031192;28;20033;-72
2022/01/05 06:02:38;;;;;;;0.00;0.00;;;4.40;99.90;;;;;;5030961;28;20111;-74
2022/01/05 06:05:05;;;;;;;0.00;0.00;;;4.50;99.90;;;;;;5033057;28;20042;-73
2022/01/05 06:07:31;;;;;;;1.58;1.48;;;4.50;99.90;;;;;;5034915;28;20029;-73
2022/01/05 06:09:58;;;;;;;0.10;0.10;;;4.50;99.90;;;;;;5034457;28;20044;-75
2022/01/05 06:12:25;;;;;;;0.00;0.00;;;4.50;99.90;;;;;;5034235;28;20141;-71
2022/01/05 06:14:51;;;;;;;0.10;0.10;;;4.50;99.90;;;;;;5033480;28;20080;-70
2022/01/05 06:17:17;;;;;;;0.00;0.00;;;4.40;99.90;;;;;;5034231;28;20065;-71
2022/01/05 06:19:43;;;;;;;0.00;0.00;;;4.40;99.90;;;;;;5034436;28;20037;-71
2022/01/05 06:22:09;;;;;;;0.00;0.00;;;4.40;99.90;;;;;;5034511;28;20092;-71
2022/01/05 06:24:35;;;;;;;0.20;0.20;;;4.30;99.90;;;;;;5034040;28;20440;-71
2022/01/05 06:27:01;;;;;;;0.10;0.10;;;4.30;99.90;;;;;;5034380;28;20543;-69
2022/01/05 06:29:27;;;;;;;0.10;0.10;;;4.30;99.90;;;;;;5034123;28;20041;-71
2022/01/05 06:31:53;;;;;;;0.00;0.00;;;4.30;99.90;;;;;;5034304;28;20037;-72
2022/01/05 06:34:18;;;;;;;0.10;0.10;;;4.40;99.90;;;;;;5033623;28;20405;-74
2022/01/05 06:36:44;;;;;;;0.00;0.00;;;4.40;99.90;;;;;;5034069;28;20049;-72
2022/01/05 06:39:11;;;;;;;0.00;0.00;;;4.30;99.90;;;;;;5033953;28;20037;-73
2022/01/05 06:41:37;;;;;;;1.30;1.20;;;4.30;99.90;;;;;;5033668;28;20034;-73
2022/01/05 06:44:03;;;;;;;0.00;0.00;;;4.30;99.90;;;;;;5033931;28;20029;-70
2022/01/05 06:46:29;;;;;;;0.10;0.10;;;4.30;99.90;;;;;;5033484;28;20034;-73
2022/01/05 06:48:55;;;;;;;0.00;0.00;;;4.30;99.90;;;;;;5033769;28;20036;-73
2022/01/05 06:51:21;;;;;;;0.00;0.00;;;4.20;99.90;;;;;;5030734;28;20060;-75
2022/01/05 06:53:46;;;;;;;0.10;0.10;;;4.20;99.90;;;;;;5013822;28;20041;-74
2022/01/05 06:56:12;;;;;;;0.28;0.28;;;4.30;99.90;;;;;;5013737;28;20034;-73
2022/01/05 06:58:38;;;;;;;0.10;0.10;;;4.30;99.90;;;;;;5013622;28;20030;-73
2022/01/05 07:01:03;;;;;;;0.10;0.10;;;4.30;99.90;;;;;;5013536;28;20479;-73
2022/01/05 07:03:29;;;;;;;0.10;0.10;;;4.20;99.90;;;;;;5013633;28;20030;-74
2022/01/05 07:05:55;;;;;;;0.10;0.10;;;4.10;99.90;;;;;;5013518;28;20038;-73
2022/01/05 07:08:21;;;;;;;0.00;0.00;;;4.00;99.90;;;;;;5013826;28;20033;-68
2022/01/05 07:10:46;;;;;;;0.10;0.10;;;3.90;99.90;;;;;;5012678;28;20092;-74
2022/01/05 07:13:12;;;;;;;0.40;0.40;;;3.90;99.90;;;;;;5013819;28;20069;-74
2022/01/05 07:15:38;;;;;;;0.10;0.10;;;3.90;99.90;;;;;;5013050;28;20030;-75
2022/01/05 07:18:04;;;;;;;0.10;0.10;;;3.90;99.90;;;;;;5022604;28;20041;-75
2022/01/05 07:20:29;;;;;;;3.60;1.45;;;3.90;99.90;;;;;;5032951;28;20553;-75
2022/01/05 07:22:55;;;;;;;0.10;0.10;;;3.90;99.90;;;;;;5033366;28;20040;-74
2022/01/05 07:25:21;;;;;;;0.10;0.10;;;3.80;99.90;;;;;;5013205;28;20033;-74
2022/01/05 07:27:46;;;;;;;0.10;0.10;;;3.80;99.90;;;;;;5013650;28;20163;-74
2022/01/05 07:30:12;;;;;;;0.00;0.00;;;3.80;99.90;;;;;;5013409;28;20049;-74
2022/01/05 07:32:40;;;;;;;0.10;0.10;;;3.80;99.90;;;;;;5011583;28;20044;-75
2022/01/05 07:35:06;;;;;;;0.10;0.10;;;3.90;99.90;;;;;;5013436;28;20083;-74
2022/01/05 07:37:32;;;;;;;0.05;0.05;;;3.80;99.90;;;;;;5013016;28;20033;-74
2022/01/05 07:39:57;;;;;;;0.10;0.10;;;3.80;99.90;;;;;;5012917;28;20544;-75
2022/01/05 07:42:23;;;;;;;0.10;0.10;;;3.70;99.90;;;;;;5012920;28;20534;-75
2022/01/05 07:44:50;;;;;;;0.00;0.00;;;3.60;99.90;;;;;;5013267;28;20084;-75
2022/01/05 07:47:16;;;;;;;0.20;0.20;;;3.60;99.90;;;;;;5012815;28;20124;-75
2022/01/05 07:49:41;;;;;;;0.00;0.00;;;3.60;99.90;;;;;;5011819;28;20751;-75
2022/01/05 07:52:07;;;;;;;0.00;0.00;;;3.50;99.90;;;;;;5012914;28;20438;-75
2022/01/05 07:54:35;;;;;;;0.10;0.10;;;3.50;99.90;;;;;;5012908;28;20117;-75
2022/01/05 07:57:01;;;;;;;0.10;0.10;;;3.50;99.90;;;;;;5012791;28;20030;-75
2022/01/05 07:59:27;;;;;;;0.00;0.00;;;3.40;99.90;;;;;;5011362;28;20205;-76
2022/01/05 08:01:53;;;;;;;0.00;0.00;;;3.40;99.90;;;;;;5027741;28;20109;-75
2022/01/05 08:04:19;;;;;;;0.00;0.00;;;3.40;99.90;;;;;;5011484;28;20133;-77
2022/01/05 08:06:45;;;;;;;0.40;0.40;;;3.40;99.90;;;;;;5013035;28;20036;-78
2022/01/05 08:09:11;;;;;;;0.10;0.10;;;3.40;99.90;;;;;;5012858;28;20030;-76
2022/01/05 08:11:36;;;;;;;0.10;0.10;;;3.40;99.90;;;;;;5012557;28;20034;-77
2022/01/05 08:14:02;;;;;;;0.00;0.00;;;3.30;99.90;;;;;;5011046;28;20092;-76
2022/01/05 08:16:28;;;;;;;0.10;0.10;;;3.40;99.90;;;;;;5010818;28;20069;-76
2022/01/05 08:18:54;;;;;;;0.00;0.00;;;3.30;99.90;;;;;;5012576;28;20084;-76
2022/01/05 08:21:20;;;;;;;0.00;0.00;;;3.30;99.90;;;;;;5012451;28;20076;-76
2022/01/05 08:23:46;;;;;;;0.00;0.00;;;3.30;99.90;;;;;;5011555;28;20430;-75
2022/01/05 08:26:12;;;;;;;0.10;0.10;;;3.30;99.90;;;;;;5012429;28;20099;-76
2022/01/05 08:28:38;;;;;;;0.10;0.10;;;3.40;99.90;;;;;;5010562;28;20439;-76
2022/01/05 08:31:03;;;;;;;0.10;0.10;;;3.30;99.90;;;;;;5027512;28;20026;-77
2022/01/05 08:33:29;;;;;;;0.32;0.32;;;3.30;99.90;;;;;;5012249;28;20125;-78
2022/01/05 08:35:55;;;;;;;0.08;0.08;;;3.30;99.90;;;;;;5012187;28;20056;-76
2022/01/05 08:38:21;;;;;;;0.75;0.75;;;3.20;99.90;;;;;;5012185;28;20030;-77
2022/01/05 08:40:49;;;;;;;0.30;0.30;;;3.30;99.90;;;;;;5012497;28;20053;-75
2022/01/05 08:43:15;;;;;;;0.10;0.10;;;3.30;99.90;;;;;;5013489;28;20034;-76
2022/01/05 08:45:44;;;;;;;0.10;0.10;;;3.20;99.90;;;;;;5012909;28;20038;-76
2022/01/05 08:48:10;;;;;;;1.27;1.17;;;3.20;99.90;;;;;;5010492;28;20046;-75
2022/01/05 08:50:37;;;;;;;0.10;0.10;;;3.20;99.90;;;;;;5010338;28;20030;-76
2022/01/05 08:53:05;;;;;;;0.10;0.10;;;3.30;99.90;;;;;;5010569;28;20034;-77
2022/01/05 08:55:44;;;;;;;0.10;0.10;;;3.30;99.90;;;;;;5011989;28;20040;-76
2022/01/05 08:58:11;;;;;;;0.38;0.38;;;3.30;99.90;;;;;;5012101;28;20037;-77
2022/01/05 09:00:37;;;;;;;0.10;0.10;;;3.30;99.90;;;;;;5011945;28;20049;-71
2022/01/05 09:03:05;;;;;;;0.00;0.00;;;3.30;99.90;;;;;;5010573;28;20030;-67
2022/01/05 09:05:32;;;;;;;0.10;0.10;;;3.40;99.90;;;;;;5011666;28;20063;-74
2022/01/05 09:07:59;;;;;;;0.10;0.10;;;3.40;99.90;;;;;;5017857;28;20034;-71
2022/01/05 09:10:25;;;;;;;0.10;0.10;;;3.40;99.90;;;;;;5030424;28;20047;-79
2022/01/05 09:12:53;;;;;;;0.10;0.10;;;3.50;99.90;;;;;;5031753;28;20065;-70
2022/01/05 09:15:19;;;;;;;0.10;0.10;;;3.50;99.90;;;;;;5031297;28;20101;-74
2022/01/05 09:17:45;;;;;;;0.05;0.05;;;3.50;99.90;;;;;;5031173;28;20025;-75
2022/01/05 09:20:14;;;;;;;0.20;0.20;;;3.60;99.90;;;;;;5030475;28;20512;-75
2022/01/05 09:22:40;;;;;;;0.10;0.10;;;3.60;99.90;;;;;;5031423;28;20108;-75
2022/01/05 09:25:09;;;;;;;1.45;0.70;;;3.60;99.90;;;;;;5031841;28;20675;-75
2022/01/05 09:27:38;;;;;;;0.10;0.10;;;3.70;99.90;;;;;;5031151;28;20033;-75
2022/01/05 09:30:07;;;;;;;0.00;0.00;;;3.70;99.90;;;;;;5030239;28;20450;-75
2022/01/05 09:32:32;;;;;;;0.00;0.00;;;3.70;99.90;;;;;;5031390;28;20026;-75
2022/01/05 09:34:58;;;;;;;0.10;0.10;;;3.80;99.90;;;;;;5028405;28;20084;-75
2022/01/05 09:37:32;;;;;;;0.10;0.10;;;3.80;99.90;;;;;;5029653;28;20474;-75
2022/01/05 09:42:42;;;;;;;0.00;0.00;;;3.80;99.90;;;;;;5034211;28;20028;-75
2022/01/05 09:45:20;;;;;;;0.05;0.05;;;3.90;99.90;;;;;;5033822;28;20494;-76
2022/01/05 09:48:08;;;;;;;10.80;3.92;;;3.90;99.90;;;;;;5033479;28;20041;-75
2022/01/05 09:50:38;;;;;;;0.00;0.00;;;4.00;99.90;;;;;;5034894;28;20036;-74
2022/01/05 09:53:05;;;;;;;0.00;0.00;;;4.00;99.90;;;;;;5033679;28;20040;-74
2022/01/05 09:55:31;;;;;;;0.00;0.00;;;4.10;99.90;;;;;;5034663;28;20285;-75
2022/01/05 09:57:57;;;;;;;0.00;0.00;;;4.40;99.90;;;;;;5034910;28;20068;-76
2022/01/05 10:00:23;;;;;;;1.27;0.63;;;4.60;99.90;;;;;;5033898;28;20384;-76
2022/01/05 10:02:50;;;;;;;0.10;0.10;;;4.50;99.90;;;;;;5035041;28;20385;-74
2022/01/05 10:05:17;;;;;;;0.98;0.85;;;4.70;99.90;;;;;;5034938;28;20578;-75
2022/01/05 10:07:43;;;;;;;0.08;0.08;;;4.70;99.90;;;;;;5033174;28;20505;-75
2022/01/05 10:10:10;;;;;;;0.45;0.45;;;4.60;99.90;;;;;;5033713;28;20040;-75
2022/01/05 10:12:36;;;;;;;0.00;0.00;;;5.00;99.90;;;;;;5034758;28;20026;-80
2022/01/05 10:15:03;;;;;;;0.00;0.00;;;4.80;99.90;;;;;;5034872;28;20112;-78
2022/01/05 10:17:36;;;;;;;0.03;0.03;;;4.80;99.90;;;;;;5020270;28;20458;-79
2022/01/05 10:20:09;;;;;;;0.00;0.00;;;4.70;99.90;;;;;;5019269;28;20074;-78
2022/01/05 10:22:41;;;;;;;0.73;0.73;;;4.80;99.90;;;;;;5013678;28;20029;-79
2022/01/05 10:25:22;;;;;;;0.60;0.60;;;5.50;99.90;;;;;;5013229;28;20117;-75
2022/01/05 10:27:57;;;;;;;0.00;0.00;;;5.40;99.90;;;;;;5012586;28;20034;-76
2022/01/05 10:30:41;;;;;;;0.10;0.10;;;5.80;99.90;;;;;;5014589;28;20045;-75
2022/01/05 10:33:08;;;;;;;0.10;0.10;;;5.50;99.90;;;;;;5014234;28;20113;-74
2022/01/05 10:35:35;;;;;;;0.00;0.00;;;4.90;99.90;;;;;;5014449;28;20034;-74
2022/01/05 10:38:04;;;;;;;0.10;0.10;;;4.80;99.90;;;;;;5013322;28;20430;-75
2022/01/05 10:40:36;;;;;;;3.88;1.75;;;4.60;99.90;;;;;;5014121;28;20026;-75
2022/01/05 10:43:09;;;;;;;0.00;0.00;;;4.30;99.90;;;;;;4996821;28;20045;-75
2022/01/05 10:45:44;;;;;;;0.10;0.10;;;4.70;99.90;;;;;;5013163;28;20029;-75
2022/01/05 10:48:14;;;;;;;2.30;1.65;;;5.20;99.90;;;;;;5013144;28;20718;-75
2022/01/05 10:50:41;;;;;;;0.52;0.52;;;4.80;99.90;;;;;;5013555;28;20076;-73
2022/01/05 10:53:13;;;;;;;0.00;0.00;;;4.80;99.90;;;;;;5013994;28;20038;-74
2022/01/05 10:55:45;;;;;;;0.10;0.10;;;4.60;99.90;;;;;;5014030;28;20423;-75
2022/01/05 10:58:15;;;;;;;1.52;1.40;;;5.00;99.90;;;;;;5012866;28;20037;-74
2022/01/05 11:00:52;;;;;;;6.13;1.55;;;4.80;99.90;;;;;;5012353;28;20034;-74
2022/01/05 11:03:41;;;;;;;0.00;0.00;;;5.20;99.90;;;;;;5013997;28;20030;-74
2022/01/05 11:06:18;;;;;;;0.20;0.20;;;5.20;99.90;;;;;;5013680;28;20121;-74
2022/01/05 11:08:52;;;;;;;0.00;0.00;;;4.80;99.90;;;;;;5013953;28;20076;-74
2022/01/05 11:11:49;;;;;;;1.35;1.05;;;4.80;99.90;;;;;;5012714;28;20034;-75
2022/01/05 11:14:32;;;;;;;0.00;0.00;;;5.30;99.90;;;;;;5004253;28;20074;-74
2022/01/05 11:17:01;;;;;;;0.10;0.10;;;5.20;99.90;;;;;;5022171;28;20443;-74
2022/01/05 11:19:33;;;;;;;0.10;0.10;;;5.40;99.90;;;;;;5032231;28;20048;-74
2022/01/05 11:22:16;;;;;;;0.20;0.20;;;5.10;99.90;;;;;;5033503;28;20060;-74
2022/01/05 11:24:54;;;;;;;0.45;0.45;;;5.40;99.90;;;;;;5033149;28;20037;-74
2022/01/05 11:27:24;;;;;;;0.10;0.10;;;5.40;99.90;;;;;;5031863;28;20513;-75
2022/01/05 11:29:50;;;;;;;0.00;0.00;;;6.00;99.90;;;;;;5033102;28;20171;-73
2022/01/05 11:32:20;;;;;;;0.20;0.20;;;5.70;99.90;;;;;;5031990;28;20124;-74
2022/01/05 11:34:47;;;;;;;0.15;0.15;;;6.10;99.90;;;;;;5031893;28;20029;-74
2022/01/05 11:37:13;;;;;;;0.32;0.32;;;5.60;99.90;;;;;;5015634;28;20034;-74
2022/01/05 11:39:49;;;;;;;0.05;0.05;;;6.30;99.90;;;;;;5031771;28;20166;-74
2022/01/05 11:42:24;;;;;;;0.22;0.22;;;6.20;99.90;;;;;;5031582;28;20065;-74
2022/01/05 11:44:54;;;;;;;0.00;0.00;;;5.90;99.90;;;;;;5022192;28;20029;-74
2022/01/05 11:47:29;;;;;;;0.20;0.20;;;5.60;99.90;;;;;;5011645;28;20050;-75
2022/01/05 11:50:14;;;;;;;0.10;0.10;;;5.50;99.90;;;;;;5012974;28;20034;-75
2022/01/05 11:52:57;;;;;;;0.10;0.10;;;5.30;99.90;;;;;;5012536;28;20065;-74
2022/01/05 11:55:24;;;;;;;0.00;0.00;;;4.90;99.90;;;;;;5011995;28;20548;-74
2022/01/05 11:58:13;;;;;;;0.82;0.82;;;4.80;99.90;;;;;;5011725;28;20034;-74
2022/01/05 12:00:39;;;;;;;0.10;0.10;;;4.70;99.90;;;;;;5012814;28;20364;-75
2022/01/05 12:03:04;;;;;;;0.20;0.20;;;4.70;99.90;;;;;;5012030;28;20072;-74
2022/01/05 12:06:06;;;;;;;4.47;3.30;;;4.40;99.90;;;;;;5012527;28;20080;-75
2022/01/05 12:08:47;;;;;;;0.00;0.00;;;4.50;99.90;;;;;;5012859;28;20041;-80
2022/01/05 12:11:33;;;;;;;0.40;0.40;;;4.50;99.90;;;;;;5011501;28;20049;-81
2022/01/05 12:14:06;;;;;;;0.00;0.00;;;4.40;99.90;;;;;;5012402;28;20032;-73
2022/01/05 12:17:03;;;;;;;9.82;1.65;;;4.40;99.90;;;;;;5012641;28;20037;-70
2022/01/05 12:19:48;;;;;;;0.10;0.10;;;4.50;99.90;;;;;;5011164;28;20041;-71
2022/01/05 12:22:28;;;;;;;0.00;0.00;;;4.50;99.90;;;;;;5012657;28;20038;-71
2022/01/05 12:25:00;;;;;;;0.20;0.20;;;4.60;99.90;;;;;;5012497;28;20521;-72
2022/01/05 12:27:37;;;;;;;0.57;0.57;;;4.50;99.90;;;;;;5016750;28;20054;-78
2022/01/05 12:30:25;;;;;;;0.10;0.10;;;4.40;99.90;;;;;;5012493;28;20038;-78
2022/01/05 12:33:14;;;;;;;0.30;0.30;;;4.40;99.90;;;;;;5011723;28;20057;-77
2022/01/05 12:36:02;;;;;;;0.10;0.10;;;4.60;99.90;;;;;;5013498;28;20466;-72
2022/01/05 12:38:37;;;;;;;0.35;0.35;;;4.50;99.90;;;;;;5013110;28;20121;-72
2022/01/05 12:41:37;;;;;;;0.57;0.57;;;4.40;99.90;;;;;;5011979;28;20042;-69
2022/01/05 12:44:15;;;;;;;0.00;0.00;;;4.40;99.90;;;;;;5010899;28;20111;-71
2022/01/05 12:46:45;;;;;;;0.00;0.00;;;4.30;99.90;;;;;;5011581;28;20380;-71
2022/01/05 12:49:14;;;;;;;0.00;0.00;;;4.30;99.90;;;;;;5011148;28;20117;-72
2022/01/05 12:51:50;;;;;;;0.10;0.10;;;4.30;99.90;;;;;;5011823;28;20123;-77
2022/01/05 12:54:25;;;;;;;0.10;0.10;;;4.20;99.90;;;;;;5012200;28;20533;-72
2022/01/05 12:57:05;;;;;;;0.17;0.17;;;4.20;99.90;;;;;;5012002;28;20041;-72
2022/01/05 12:59:33;;;;;;;0.00;0.00;;;4.20;99.90;;;;;;5010766;28;20026;-70
2022/01/05 13:02:08;;;;;;;0.00;0.00;;;4.10;99.90;;;;;;5012058;28;20061;-71
2022/01/05 13:04:36;;;;;;;0.00;0.00;;;4.10;99.90;;;;;;5010918;28;20060;-71
2022/01/05 13:07:05;;;;;;;0.00;0.00;;;4.10;99.90;;;;;;5010765;28;20157;-70
2022/01/05 13:09:49;;;;;;;0.10;0.10;;;4.20;99.90;;;;;;5010857;28;20434;-79